Time;durP1;ratioP1;P1;durP2;ratioP2;P2;SDS_P1;SDS_P2;PMS_P1;PMS_P2;Temp;Humidity;BMP_temperature;BMP_pressure;BME280_temperature;BME280_humidity;BME280_pressure;Samples;Min_cycle;Max_cycle;Signal;HPM_P1;HPM_P2
2022/12/08 00:01:38;;;;;;;11.43;4.93;;;;;;;-3.78;100.00;100542.97;6132045;23;20006;-93
2022/12/08 00:04:05;;;;;;;9.32;4.55;;;;;;;-3.75;100.00;100533.75;6132868;23;20070;-94
2022/12/08 00:09:22;;;;;;;17.42;5.35;;;;;;;-3.51;100.00;100547.25;6158785;23;20028;-94
2022/12/08 00:11:57;;;;;;;11.15;4.93;;;;;;;-3.41;100.00;100555.66;6156291;23;20013;-93
2022/12/08 00:14:26;;;;;;;15.48;6.05;;;;;;;-3.61;100.00;100528.72;6130320;23;20010;-94
2022/12/08 00:16:52;;;;;;;12.30;4.78;;;;;;;-3.75;100.00;100520.31;6131821;23;20040;-94
2022/12/08 00:19:17;;;;;;;11.27;4.85;;;;;;;-3.77;100.00;100516.94;6131665;23;20010;-93
2022/12/08 00:21:42;;;;;;;15.43;8.40;;;;;;;-3.91;100.00;100515.19;6130486;23;20001;-93
2022/12/08 00:24:08;;;;;;;35.60;17.23;;;;;;;-3.76;100.00;100543.81;6132113;23;20009;-93
2022/12/08 00:26:35;;;;;;;46.92;21.25;;;;;;;-3.96;100.00;100516.88;6132443;23;20013;-94
2022/12/08 00:29:01;;;;;;;20.05;8.27;;;;;;;-3.65;100.00;100519.47;6133564;23;20001;-94
2022/12/08 00:31:26;;;;;;;21.58;6.15;;;;;;;-3.38;100.00;100526.25;6131172;23;20002;-93
2022/12/08 00:33:52;;;;;;;10.55;5.22;;;;;;;-3.43;100.00;100496.81;6132551;23;20002;-94
2022/12/08 00:36:17;;;;;;;11.23;5.72;;;;;;;-3.31;100.00;100527.09;6156372;23;20001;-93
2022/12/08 00:38:43;;;;;;;7.65;4.82;;;;;;;-3.27;100.00;100514.47;6132423;23;20012;-93
2022/12/08 00:44:10;;;;;;;11.18;5.57;;;;;;;-3.43;100.00;100472.41;6116381;23;20001;-94
2022/12/08 00:46:36;;;;;;;12.60;5.78;;;;;;;-3.67;100.00;100463.16;6132501;23;20029;-93
2022/12/08 00:49:03;;;;;;;10.48;5.63;;;;;;;-3.64;100.00;100479.97;6132326;23;20010;-93
2022/12/08 00:51:29;;;;;;;14.40;6.05;;;;;;;-3.76;100.00;100490.88;6131439;23;20008;-94
2022/12/08 00:53:56;;;;;;;13.73;7.00;;;;;;;-3.57;100.00;100495.09;6127134;23;20345;-94
2022/12/08 00:56:22;;;;;;;13.68;6.28;;;;;;;-3.78;100.00;100458.09;6127555;23;20016;-93
2022/12/08 00:58:48;;;;;;;12.63;6.70;;;;;;;-3.70;100.00;100465.66;6127312;23;20006;-95
2022/12/08 01:01:14;;;;;;;14.63;6.88;;;;;;;-3.73;100.00;100460.59;6126326;23;20092;-93
2022/12/08 01:03:40;;;;;;;15.63;7.57;;;;;;;-3.59;100.00;100490.88;6127894;23;20010;-95
2022/12/08 01:06:07;;;;;;;20.45;9.45;;;;;;;-3.93;100.00;100450.47;6129247;23;20006;-95
2022/12/08 01:08:34;;;;;;;19.52;11.20;;;;;;;-3.99;100.00;100455.53;6128666;23;20134;-94
2022/12/08 01:11:08;;;;;;;25.17;12.32;;;;;;;-4.03;100.00;100447.09;6128973;23;20002;-94
2022/12/08 01:13:34;;;;;;;24.02;12.00;;;;;;;-4.03;100.00;100458.88;6129644;23;19997;-94
2022/12/08 01:15:59;;;;;;;27.88;13.10;;;;;;;-4.15;100.00;100452.13;6128884;23;20017;-94
2022/12/08 01:18:26;;;;;;;24.92;11.73;;;;;;;-4.15;100.00;100459.69;6129359;23;20040;-95
2022/12/08 01:20:52;;;;;;;20.65;11.48;;;;;;;-4.53;100.00;100413.38;6127556;23;20020;-95
2022/12/08 01:23:17;;;;;;;21.92;10.43;;;;;;;-4.28;100.00;100460.50;6127216;23;20082;-94
2022/12/08 01:25:43;;;;;;;22.88;10.50;;;;;;;-4.35;100.00;100462.97;6127724;23;20332;-95
2022/12/08 01:28:09;;;;;;;24.77;11.32;;;;;;;-4.55;100.00;100449.47;6133982;23;20064;-95
2022/12/08 01:30:37;;;;;;;16.10;8.60;;;;;;;-4.63;100.00;100441.00;6134448;23;20013;-94
2022/12/08 01:33:03;;;;;;;13.85;7.93;;;;;;;-4.62;100.00;100450.28;6135201;23;20012;-94
2022/12/08 01:35:28;;;;;;;14.75;8.07;;;;;;;-4.80;100.00;100434.25;6134160;23;20033;-94
2022/12/08 01:37:54;;;;;;;16.88;8.95;;;;;;;-4.91;100.00;100420.75;6160854;23;20010;-93
2022/12/08 01:40:19;;;;;;;12.98;7.10;;;;;;;-4.89;100.00;100418.25;6135350;23;20009;-94
2022/12/08 01:42:45;;;;;;;14.13;8.13;;;;;;;-4.97;100.00;100419.03;6132500;23;20009;-95
2022/12/08 01:45:28;;;;;;;14.50;8.20;;;;;;;-5.02;100.00;100408.13;6133329;23;20006;-94
2022/12/08 01:47:59;;;;;;;12.85;7.80;;;;;;;-4.97;100.00;100413.19;6134070;23;20158;-93
2022/12/08 01:50:26;;;;;;;20.38;9.43;;;;;;;-5.06;100.00;100408.09;6133969;23;20005;-94
2022/12/08 01:53:05;;;;;;;15.85;8.35;;;;;;;-5.07;100.00;100414.81;6133400;23;20424;-95
2022/12/08 01:55:37;;;;;;;15.32;8.27;;;;;;;-5.04;100.00;100427.38;6133820;23;19998;-95
2022/12/08 01:58:12;;;;;;;20.05;8.70;;;;;;;-5.02;100.00;100427.41;6133326;23;20006;-93
2022/12/08 02:00:37;;;;;;;15.10;8.32;;;;;;;-5.17;100.00;100397.94;6158784;23;20005;-94
2022/12/08 02:03:08;;;;;;;17.48;10.02;;;;;;;-5.13;100.00;100409.72;6134117;23;20038;-95
2022/12/08 02:05:37;;;;;;;17.63;9.40;;;;;;;-5.01;100.00;100444.19;6135140;23;20001;-95
2022/12/08 02:08:07;;;;;;;19.95;8.77;;;;;;;-5.13;100.00;100429.00;6135227;23;20001;-94
2022/12/08 02:10:34;;;;;;;20.02;10.07;;;;;;;-5.29;100.00;100403.75;6133405;23;20006;-94
2022/12/08 02:13:02;;;;;;;17.20;9.40;;;;;;;-5.04;100.00;100434.09;6133169;23;20001;-92
2022/12/08 02:15:49;;;;;;;14.15;8.57;;;;;;;-5.08;100.00;100428.19;6158587;23;20013;-93
2022/12/08 02:18:35;;;;;;;14.35;8.38;;;;;;;-5.07;100.00;100429.03;6134924;23;20002;-92
2022/12/08 02:21:17;;;;;;;13.70;7.63;;;;;;;-5.08;100.00;100427.34;6104610;23;20001;-94
2022/12/08 02:24:06;;;;;;;16.40;8.70;;;;;;;-5.32;100.00;100397.84;6134561;23;20005;-93
2022/12/08 02:26:41;;;;;;;15.75;8.55;;;;;;;-5.11;100.00;100430.69;6133695;23;20005;-93
2022/12/08 02:29:42;;;;;;;14.18;8.10;;;;;;;-5.19;100.00;100420.59;6134017;23;20029;-95
2022/12/08 02:32:25;;;;;;;17.25;7.93;;;;;;;-5.14;100.00;100423.13;6129797;23;20010;-95
2022/12/08 02:34:57;;;;;;;9.23;6.93;;;;;;;-5.17;100.00;100418.94;6133107;23;20006;-94
2022/12/08 02:37:25;;;;;;;;;;;;;;;-5.16;100.00;100420.59;6133187;23;20462;-93
2022/12/08 02:40:06;;;;;;;11.93;6.88;;;;;;;-5.18;100.00;100414.72;6134623;23;19916;-95
2022/12/08 02:42:39;;;;;;;12.20;7.07;;;;;;;-5.34;100.00;100385.28;6132511;23;20013;-94
2022/12/08 02:45:20;;;;;;;19.25;7.65;;;;;;;-5.42;100.00;100370.13;6134333;23;20005;-94
2022/12/08 02:47:46;;;;;;;13.93;7.00;;;;;;;-5.13;100.00;100403.84;6133432;23;20007;-95
2022/12/08 02:50:13;;;;;;;13.30;5.85;;;;;;;-5.16;100.00;100395.44;6133955;23;20014;-95
2022/12/08 02:52:44;;;;;;;12.75;7.25;;;;;;;-5.32;100.00;100371.00;6133536;23;20487;-95
2022/12/08 02:55:24;;;;;;;12.20;6.60;;;;;;;-5.21;100.00;100382.00;6133908;23;20002;-93
2022/12/08 02:58:08;;;;;;;8.95;6.05;;;;;;;-5.10;100.00;100392.13;6133757;23;20495;-94
2022/12/08 03:00:54;;;;;;;15.20;6.00;;;;;;;-5.30;100.00;100350.91;6134178;23;20009;-94
2022/12/08 03:03:42;;;;;;;8.98;6.13;;;;;;;-5.08;100.00;100382.06;6135300;23;20340;-93
2022/12/08 03:06:45;;;;;;;12.25;6.30;;;;;;;-5.04;100.00;100383.78;6134860;23;20005;-95
2022/12/08 03:09:10;;;;;;;9.10;5.97;;;;;;;-5.07;100.00;100377.06;6133968;23;20037;-95
2022/12/08 03:11:46;;;;;;;8.45;5.35;;;;;;;-5.19;100.00;100360.22;6158104;23;20008;-94
2022/12/08 03:14:15;;;;;;;11.27;5.88;;;;;;;-5.31;100.00;100334.97;6158494;23;20017;-94
2022/12/08 03:16:45;;;;;;;9.57;5.75;;;;;;;-5.28;100.00;100340.03;6134026;23;20068;-94
2022/12/08 03:19:22;;;;;;;10.35;5.90;;;;;;;-5.23;100.00;100357.66;6133509;23;20269;-93
2022/12/08 03:21:51;;;;;;;9.98;5.75;;;;;;;-5.32;100.00;100343.34;6131961;23;20036;-95
2022/12/08 03:24:18;;;;;;;7.35;5.07;;;;;;;-5.20;100.00;100362.72;6133083;23;20009;-96
2022/12/08 03:27:10;;;;;;;9.82;6.63;;;;;;;-5.31;100.00;100345.03;6132837;23;20017;-95
2022/12/08 03:29:35;;;;;;;9.45;5.50;;;;;;;-5.37;100.00;100329.91;6133845;23;20014;-94
2022/12/08 03:32:19;;;;;;;7.40;5.05;;;;;;;-5.18;100.00;100366.91;6132998;23;20005;-93
2022/12/08 03:34:47;;;;;;;8.00;4.53;;;;;;;-5.21;100.00;100361.88;6133021;23;20012;-94
2022/12/08 03:37:13;;;;;;;6.88;5.00;;;;;;;-5.19;100.00;100365.25;6132085;23;20021;-94
2022/12/08 03:39:39;;;;;;;10.23;4.53;;;;;;;-5.28;100.00;100345.06;6132772;23;20037;-93
2022/12/08 03:42:05;;;;;;;6.45;4.10;;;;;;;-5.32;100.00;100340.84;6157423;23;20016;-94
2022/12/08 03:44:30;;;;;;;8.40;4.95;;;;;;;-5.33;100.00;100340.84;6133420;23;20437;-93
2022/12/08 03:46:56;;;;;;;7.47;5.03;;;;;;;-5.43;100.00;100330.72;6133609;23;20005;-94
2022/12/08 03:49:21;;;;;;;12.40;5.55;;;;;;;-5.42;100.00;100334.91;6132893;23;20010;-94
2022/12/08 03:51:47;;;;;;;11.27;6.32;;;;;;;-5.41;100.00;100329.06;6132742;23;20006;-93
2022/12/08 03:54:12;;;;;;;7.38;4.32;;;;;;;-5.24;100.00;100351.81;6132506;23;20009;-95
2022/12/08 03:56:38;;;;;;;9.68;4.70;;;;;;;-5.48;100.00;100313.94;6133801;23;20016;-94
2022/12/08 03:59:05;;;;;;;7.55;4.35;;;;;;;-5.52;100.00;100304.69;6131365;23;20006;-93
2022/12/08 04:01:31;;;;;;;6.68;4.60;;;;;;;-5.48;100.00;100324.00;6133246;23;20447;-93
2022/12/08 04:03:57;;;;;;;6.10;4.85;;;;;;;-5.51;100.00;100322.31;6132695;23;20080;-94
2022/12/08 04:06:23;;;;;;;7.93;4.65;;;;;;;-5.38;100.00;100343.31;6134494;23;20025;-94
2022/12/08 04:08:50;;;;;;;7.35;4.07;;;;;;;-5.55;100.00;100309.69;6134819;23;20265;-95
2022/12/08 04:11:16;;;;;;;8.05;4.53;;;;;;;-5.37;100.00;100327.38;6137043;23;20324;-95
2022/12/08 04:13:42;;;;;;;5.95;3.95;;;;;;;-5.36;100.00;100326.56;6159458;23;20033;-95
2022/12/08 04:16:13;;;;;;;9.85;3.90;;;;;;;-5.52;100.00;100295.47;6134479;23;20016;-95
2022/12/08 04:18:39;;;;;;;11.38;5.03;;;;;;;-5.28;100.00;100293.91;6157897;23;20117;-94
2022/12/08 04:21:04;;;;;;;15.10;6.93;;;;;;;-5.11;100.00;100299.03;6133875;23;20413;-95
2022/12/08 04:23:41;;;;;;;9.98;5.28;;;;;;;-5.16;100.00;100289.75;6136301;23;20028;-94
2022/12/08 04:26:07;;;;;;;13.00;5.43;;;;;;;-5.05;100.00;100331.75;6158391;23;20001;-94
2022/12/08 04:28:33;;;;;;;13.02;6.75;;;;;;;-5.20;100.00;100313.22;6133093;23;20096;-94
2022/12/08 04:30:59;;;;;;;10.98;5.72;;;;;;;-5.31;100.00;100297.25;6133201;23;20006;-95
2022/12/08 04:33:25;;;;;;;8.75;5.10;;;;;;;-5.40;100.00;100284.63;6134092;23;20002;-95
2022/12/08 04:35:50;;;;;;;8.80;5.40;;;;;;;-5.31;100.00;100289.72;6134403;23;20024;-94
2022/12/08 04:38:16;;;;;;;9.93;5.10;;;;;;;-5.25;100.00;100294.75;6159852;23;20021;-93
2022/12/08 04:40:41;;;;;;;9.90;5.80;;;;;;;-5.27;100.00;100280.50;6135642;23;20017;-93
2022/12/08 04:43:07;;;;;;;9.55;5.22;;;;;;;-5.40;100.00;100255.28;6134712;23;20006;-93
2022/12/08 04:45:33;;;;;;;7.85;5.13;;;;;;;-5.40;100.00;100262.00;6159777;23;20010;-96
2022/12/08 04:47:59;;;;;;;12.80;6.30;;;;;;;-5.34;100.00;100261.16;6136324;23;20009;-94
2022/12/08 04:50:25;;;;;;;13.20;6.85;;;;;;;-5.27;100.00;100253.66;6133673;23;20037;-95
2022/12/08 04:52:51;;;;;;;14.52;8.27;;;;;;;-5.27;100.00;100240.25;6134119;23;20010;-96
2022/12/08 04:55:16;;;;;;;15.30;7.55;;;;;;;-5.25;100.00;100248.63;6135084;23;20092;-93
2022/12/08 04:57:42;;;;;;;15.20;6.78;;;;;;;-5.33;100.00;100242.75;6137047;23;20005;-96
2022/12/08 05:00:08;;;;;;;9.43;6.05;;;;;;;-5.24;100.00;100253.69;6160455;23;20010;-94
2022/12/08 05:02:35;;;;;;;8.65;4.88;;;;;;;-5.40;100.00;100234.31;6136790;23;20012;-96
2022/12/08 05:05:01;;;;;;;7.57;4.80;;;;;;;-5.41;100.00;100238.53;6134612;23;20009;-96
2022/12/08 05:07:26;;;;;;;10.13;4.50;;;;;;;-5.46;100.00;100249.38;6133653;23;20076;-95
2022/12/08 05:09:52;;;;;;;6.85;4.15;;;;;;;-5.32;100.00;100264.53;6134617;23;20356;-96
2022/12/08 05:12:18;;;;;;;11.00;4.05;;;;;;;-5.40;100.00;100259.47;6134599;23;20012;-95
2022/12/08 05:14:45;;;;;;;8.50;4.05;;;;;;;-5.31;100.00;100261.19;6160242;23;20021;-95
2022/12/08 05:17:10;;;;;;;9.48;4.95;;;;;;;-5.40;100.00;100251.94;6134179;23;20380;-94
2022/12/08 05:19:36;;;;;;;8.02;4.35;;;;;;;-5.57;100.00;100243.47;6134010;23;20006;-95
2022/12/08 05:22:02;;;;;;;8.43;5.05;;;;;;;-5.49;100.00;100241.81;6135637;23;20432;-95
2022/12/08 05:24:27;;;;;;;9.25;4.80;;;;;;;-5.36;100.00;100256.16;6135534;23;20476;-95
2022/12/08 05:26:53;;;;;;;9.20;6.47;;;;;;;-5.28;100.00;100229.34;6136474;23;20089;-96
2022/12/08 05:29:19;;;;;;;12.65;6.63;;;;;;;-5.17;100.00;100246.97;6135638;23;20404;-95
2022/12/08 05:31:44;;;;;;;13.85;6.70;;;;;;;-5.07;100.00;100257.91;6137944;23;20024;-95
2022/12/08 05:34:10;;;;;;;14.50;7.22;;;;;;;-5.12;100.00;100239.44;6137251;23;20052;-95
2022/12/08 05:36:36;;;;;;;10.77;6.20;;;;;;;-5.21;100.00;100225.19;6134702;23;20164;-96
2022/12/08 05:39:02;;;;;;;9.85;6.97;;;;;;;-5.29;100.00;100222.63;6160132;23;20006;-95
2022/12/08 05:41:28;;;;;;;12.52;6.75;;;;;;;-5.31;100.00;100228.50;6135755;23;20001;-96
2022/12/08 05:43:53;;;;;;;11.05;6.55;;;;;;;-5.23;100.00;100226.84;6160768;23;20013;-95
2022/12/08 05:46:19;;;;;;;13.02;6.65;;;;;;;-5.07;100.00;100216.00;6135051;23;20350;-96
2022/12/08 05:48:45;;;;;;;14.05;7.10;;;;;;;-5.02;100.00;100218.53;6136868;23;20001;-95
2022/12/08 05:51:22;;;;;;;9.57;6.10;;;;;;;-5.06;100.00;100211.81;6138272;23;20010;-96
2022/12/08 05:53:50;;;;;;;15.45;7.63;;;;;;;-4.96;100.00;100216.00;6138418;23;20036;-96
2022/12/08 05:56:16;;;;;;;10.82;6.53;;;;;;;-5.02;100.00;100199.22;6137808;23;20012;-93
2022/12/08 05:58:41;;;;;;;15.80;6.65;;;;;;;-4.77;100.00;100222.75;6138369;23;20009;-93
2022/12/08 06:06:30;;;;;;;14.48;7.18;;;;;;;-4.82;100.00;100203.47;6120095;23;20046;-94
2022/12/08 06:08:55;;;;;;;14.52;7.50;;;;;;;-4.74;100.00;100197.59;6108356;23;20029;-94
2022/12/08 06:11:27;;;;;;;13.45;8.20;;;;;;;-4.59;100.00;100198.44;6131041;23;20014;-95
2022/12/08 06:13:54;;;;;;;15.60;7.68;;;;;;;-4.22;100.00;100226.97;6104942;23;20006;-94
2022/12/08 06:16:20;;;;;;;13.90;7.78;;;;;;;-4.41;100.00;100213.56;6099018;23;20007;-94
2022/12/08 06:18:46;;;;;;;14.23;8.10;;;;;;;-4.47;100.00;100218.59;6077802;23;20017;-94
2022/12/08 06:21:13;;;;;;;11.63;7.25;;;;;;;-4.45;100.00;100214.41;6100424;23;20022;-95
2022/12/08 06:23:39;;;;;;;14.25;7.55;;;;;;;-4.64;100.00;100210.19;6076325;23;20002;-95
2022/12/08 06:26:07;;;;;;;10.88;6.53;;;;;;;-4.67;100.00;100218.59;6074906;23;20085;-96
2022/12/08 06:28:39;;;;;;;11.30;6.38;;;;;;;-4.83;100.00;100192.56;6099901;23;20007;-96
2022/12/08 06:31:18;;;;;;;11.63;6.38;;;;;;;-4.79;100.00;100198.44;6099829;23;20010;-96
2022/12/08 06:33:45;;;;;;;8.55;5.80;;;;;;;-4.76;100.00;100213.53;6103935;23;20003;-94
2022/12/08 06:36:12;;;;;;;10.43;5.57;;;;;;;-4.72;100.00;100224.47;6099197;23;20010;-94
2022/12/08 06:38:38;;;;;;;9.68;4.88;;;;;;;-4.96;100.00;100191.69;6100102;23;20501;-94
2022/12/08 06:41:05;;;;;;;9.07;4.22;;;;;;;-4.88;100.00;100200.91;6074669;23;20106;-93
2022/12/08 06:43:31;;;;;;;5.28;3.35;;;;;;;-4.94;100.00;100199.25;6075879;23;20467;-95
2022/12/08 06:45:56;;;;;;;10.07;2.72;;;;;;;-4.79;100.00;100213.53;6076333;23;20006;-95
2022/12/08 06:48:22;;;;;;;6.93;3.15;;;;;;;-4.90;100.00;100175.78;6076171;23;20019;-94
2022/12/08 06:50:48;;;;;;;5.47;2.45;;;;;;;-4.68;100.00;100216.91;6075431;23;20009;-94
2022/12/08 06:53:14;;;;;;;4.38;2.38;;;;;;;-4.60;100.00;100219.44;6076152;23;20010;-95
2022/12/08 06:55:45;;;;;;;5.07;2.45;;;;;;;-4.75;100.00;100195.09;6077245;23;20015;-94
2022/12/08 06:58:11;;;;;;;5.93;2.70;;;;;;;-4.56;100.00;100214.41;6077695;23;20204;-94
2022/12/08 07:00:38;;;;;;;4.03;2.75;;;;;;;-4.57;100.00;100211.88;6076490;23;20010;-92
2022/12/08 07:03:03;;;;;;;6.20;2.63;;;;;;;-4.70;100.00;100195.09;6099437;23;20078;-95
2022/12/08 07:05:29;;;;;;;5.57;3.00;;;;;;;-4.71;100.00;100200.94;6075156;23;20425;-94
2022/12/08 07:07:54;;;;;;;2.88;2.40;;;;;;;-4.90;100.00;100180.81;6076071;23;20346;-94
2022/12/08 07:10:20;;;;;;;8.07;2.67;;;;;;;-4.81;100.00;100208.47;6077216;23;20010;-94
2022/12/08 07:12:48;;;;;;;5.15;2.40;;;;;;;-5.07;100.00;100182.41;6101788;23;20014;-94
2022/12/08 07:15:15;;;;;;;2.80;2.13;;;;;;;-5.12;100.00;100176.53;6100611;23;20007;-94
2022/12/08 07:17:47;;;;;;;7.03;3.10;;;;;;;-5.20;100.00;100177.38;6076454;23;20031;-94
2022/12/08 07:20:13;;;;;;;7.78;4.18;;;;;;;-5.18;100.00;100175.69;6100385;23;20010;-95
2022/12/08 07:22:38;;;;;;;6.82;3.40;;;;;;;-5.26;100.00;100172.34;6100678;23;20090;-94
2022/12/08 07:25:04;;;;;;;5.90;3.65;;;;;;;-5.34;100.00;100168.97;6100677;23;20073;-96
2022/12/08 07:27:30;;;;;;;9.68;3.75;;;;;;;-5.35;100.00;100167.28;6099274;23;20006;-93
2022/12/08 07:29:55;;;;;;;8.35;4.53;;;;;;;-5.28;100.00;100184.06;6076885;23;20078;-96
2022/12/08 07:32:21;;;;;;;8.60;4.25;;;;;;;-5.21;100.00;100195.81;6076198;23;20010;-94
2022/12/08 07:34:46;;;;;;;11.23;4.30;;;;;;;-5.34;100.00;100189.09;6099465;23;20065;-94
2022/12/08 07:37:12;;;;;;;11.35;6.60;;;;;;;-5.25;100.00;100205.88;6100406;23;20077;-93
2022/12/08 07:39:37;;;;;;;8.00;4.53;;;;;;;-5.54;100.00;100161.34;6101265;23;20505;-95
2022/12/08 07:42:03;;;;;;;8.65;4.95;;;;;;;-5.43;100.00;100184.03;6075621;23;20026;-95
2022/12/08 07:44:28;;;;;;;8.52;4.78;;;;;;;-5.42;100.00;100195.75;6074096;23;20013;-95
2022/12/08 07:46:54;;;;;;;8.10;4.50;;;;;;;-5.62;100.00;100178.91;6100362;23;20093;-94
2022/12/08 07:49:20;;;;;;;7.05;5.03;;;;;;;-5.69;100.00;100172.16;6075937;23;20013;-95
2022/12/08 07:51:45;;;;;;;8.45;4.40;;;;;;;-5.55;100.00;100199.06;6073495;23;20094;-95
2022/12/08 07:54:12;;;;;;;9.82;3.33;;;;;;;-5.42;100.00;100200.78;6077100;23;20013;-93
2022/12/08 07:56:37;;;;;;;6.05;3.97;;;;;;;-5.50;100.00;100182.31;6101105;23;20026;-93
2022/12/08 07:59:03;;;;;;;11.27;3.75;;;;;;;-5.52;100.00;100178.94;6100023;23;20006;-94
2022/12/08 08:01:32;;;;;;;7.30;3.20;;;;;;;-5.53;100.00;100182.31;6099639;23;20091;-95
2022/12/08 08:04:03;;;;;;;6.18;3.50;;;;;;;-5.34;100.00;100209.22;6099723;23;20010;-94
2022/12/08 08:06:30;;;;;;;7.87;3.97;;;;;;;-5.50;100.00;100177.28;6099110;23;20101;-94
2022/12/08 08:08:56;;;;;;;6.25;4.20;;;;;;;-5.44;100.00;100192.38;6099813;23;20059;-95
2022/12/08 08:11:22;;;;;;;5.93;3.45;;;;;;;-5.39;100.00;100196.63;6101390;23;20007;-94
2022/12/08 08:13:48;;;;;;;7.25;4.18;;;;;;;-5.43;100.00;100184.03;6075757;23;20010;-95
2022/12/08 08:16:14;;;;;;;10.77;3.90;;;;;;;-5.29;100.00;100215.09;6099205;23;20014;-95
2022/12/08 08:18:40;;;;;;;9.65;3.75;;;;;;;-5.35;100.00;100202.47;6098411;23;20447;-95
2022/12/08 08:21:06;;;;;;;11.88;4.72;;;;;;;-5.38;100.00;100183.19;6076281;23;20017;-95
2022/12/08 08:23:32;;;;;;;8.43;4.70;;;;;;;-5.17;100.00;100217.66;6076950;23;20010;-96
2022/12/08 08:25:59;;;;;;;11.05;5.35;;;;;;;-5.12;100.00;100210.13;6099095;23;20374;-96
2022/12/08 08:28:25;;;;;;;8.60;4.47;;;;;;;-5.26;100.00;100189.94;6101008;23;20011;-95
2022/12/08 08:30:51;;;;;;;5.95;4.25;;;;;;;-5.11;100.00;100195.84;6076697;23;20042;-96
2022/12/08 08:33:40;;;;;;;10.13;4.43;;;;;;;-4.74;100.00;100230.31;6103218;23;20013;-96
2022/12/08 12:18:37;;;;;;;1.50;0.90;;;;;;;11.28;44.34;100004.25;6124185;23;19972;-95
2022/12/08 12:21:51;;;;;;;2.20;0.77;;;;;;;11.41;43.93;100036.09;6081153;23;20014;-95
2022/12/08 12:28:01;;;;;;;4.13;1.20;;;;;;;12.04;43.44;100005.91;6054464;23;20014;-96
2022/12/08 12:30:34;;;;;;;6.22;0.90;;;;;;;11.25;43.99;99988.97;6021431;23;20007;-96
2022/12/08 12:33:18;;;;;;;2.38;1.10;;;;;;;11.37;45.02;100013.97;6078023;23;20063;-96
2022/12/08 12:35:48;;;;;;;3.50;1.45;;;;;;;11.12;44.95;99989.78;6078207;23;20010;-96
2022/12/08 12:39:13;;;;;;;3.30;1.42;;;;;;;11.83;42.67;100000.47;6077424;23;20010;-95
2022/12/08 12:41:14;;;;;;;3.95;1.23;;;;;;;11.14;44.20;99990.50;6100238;23;20007;-96
2022/12/08 12:44:08;;;;;;;2.42;1.10;;;;;;;10.96;44.91;99983.97;6052171;23;20010;-96
2022/12/08 12:46:52;;;;;;;2.03;1.20;;;;;;;11.29;44.69;100001.56;6102727;23;20011;-96
2022/12/08 12:49:42;;;;;;;3.13;1.17;;;;;;;10.71;45.65;100008.81;6083576;23;20006;-95
2022/12/08 12:52:14;;;;;;;2.45;0.90;;;;;;;9.70;47.85;100002.25;6100084;23;20377;-96
2022/12/08 12:55:09;;;;;;;7.72;1.85;;;;;;;8.55;49.72;99976.34;6099693;23;20006;-96
2022/12/08 12:57:38;;;;;;;2.30;1.17;;;;;;;7.25;53.47;99994.41;6072329;23;20006;-96
2022/12/08 13:00:03;;;;;;;2.00;1.35;;;;;;;6.89;56.07;100003.94;6101473;23;20016;-96
2022/12/08 13:02:35;;;;;;;5.47;1.73;;;;;;;6.35;57.93;99994.53;6102165;23;20002;-96
2022/12/08 13:05:11;;;;;;;5.30;1.20;;;;;;;5.93;59.24;99985.34;6103232;23;20006;-95
2022/12/08 13:08:11;;;;;;;5.18;1.70;;;;;;;4.84;62.16;99978.97;6080063;23;20002;-95
2022/12/08 13:10:44;;;;;;;4.35;1.90;;;;;;;4.69;63.03;99960.81;6080228;23;20011;-95
2022/12/08 13:13:23;;;;;;;3.45;1.70;;;;;;;4.79;63.48;99991.13;6080934;23;20014;-96
2022/12/08 13:16:12;;;;;;;3.45;1.80;;;;;;;4.27;65.74;99956.53;6078924;23;20014;-96
2022/12/08 13:18:55;;;;;;;7.00;1.95;;;;;;;4.06;67.32;99982.91;6102926;23;20010;-96
2022/12/08 13:22:17;;;;;;;2.65;1.35;;;;;;;3.65;67.76;99955.44;6078169;23;20011;-94
2022/12/08 13:25:22;;;;;;;;;;;;;;;;;;;;;
2022/12/08 13:38:35;;;;;;;2.28;1.00;;;;;;;3.04;69.28;99947.44;6015292;23;20004;-96
2022/12/08 13:48:25;;;;;;;;;;;;;;;;;;;;;
2022/12/08 13:51:42;;;;;;;;;;;;;;;;;;;;;
2022/12/08 14:15:44;;;;;;;3.08;1.30;;;;;;;2.07;77.30;99965.84;6045403;23;20010;-96
2022/12/08 14:47:51;;;;;;;;;;;;;;;;;;;;;
2022/12/08 14:52:05;;;;;;;;;;;;;;;;;;;;;
2022/12/08 15:23:44;;;;;;;;;;;;;;;;;;;;;
2022/12/08 16:26:25;;;;;;;;;;;;;;;;;;;;;
2022/12/08 16:29:46;;;;;;;7.32;2.42;;;;;;;-0.58;96.65;99930.13;6109101;23;20034;-95
2022/12/08 16:36:44;;;;;;;6.47;2.40;;;;;;;-0.80;97.80;99906.91;6093749;23;20060;-95
2022/12/08 16:39:50;;;;;;;5.03;2.47;;;;;;;-0.84;98.13;99909.53;6021017;23;20012;-94
2022/12/08 16:43:11;;;;;;;3.10;1.95;;;;;;;-0.94;98.33;99904.63;5934681;24;20021;-96
2022/12/08 16:46:24;;;;;;;;;;;;;;;;;;;;;
2022/12/08 16:53:10;;;;;;;6.05;2.03;;;;;;;-0.69;98.08;99894.00;5907914;24;20041;-95
2022/12/08 16:55:35;;;;;;;1.58;1.10;;;;;;;-0.66;97.76;99893.94;5802021;24;20069;-94
2022/12/08 16:58:03;;;;;;;3.75;1.67;;;;;;;-0.51;96.77;99895.34;5912808;23;20011;-94
2022/12/08 17:01:39;;;;;;;4.82;1.70;;;;;;;-0.46;96.31;99894.38;5994376;23;20043;-96
2022/12/08 17:05:15;;;;;;;;;;;;;;;;;;;;;
2022/12/08 17:07:45;;;;;;;3.42;1.85;;;;;;;-0.07;92.61;99909.59;6025022;23;20007;-95
2022/12/08 17:11:06;;;;;;;6.38;2.83;;;;;;;-0.09;91.60;99896.09;6014873;23;20007;-95
2022/12/08 17:14:10;;;;;;;3.55;1.75;;;;;;;-0.14;91.93;99885.25;5970131;24;20008;-95
2022/12/08 17:16:45;;;;;;;3.15;1.73;;;;;;;-0.06;91.69;99901.09;6032333;23;19991;-95
2022/12/08 17:20:32;;;;;;;;;;;;;;;;;;;;;
2022/12/08 17:24:06;;;;;;;5.20;1.95;;;;;;;-0.27;92.77;99891.44;5964368;24;20032;-95
2022/12/08 20:03:50;;;;;;;5.50;3.80;;;;;;;-3.83;100.00;99912.59;6108104;23;20024;-95
2022/12/08 20:06:26;;;;;;;11.57;5.20;;;;;;;-3.70;100.00;99910.84;6104869;23;20081;-96
2022/12/08 20:13:39;;;;;;;7.13;4.17;;;;;;;-3.60;100.00;99920.00;6145805;23;20472;-96
2022/12/08 20:15:40;;;;;;;6.85;3.63;;;;;;;-3.75;100.00;99915.09;6117143;23;20025;-94
2022/12/08 20:18:52;;;;;;;;;;;;;;;;;;;;;
2022/12/08 20:21:35;;;;;;;;;;;;;;;-3.52;100.00;99923.28;6135332;23;20029;-95
